sensor_id;sensor_type;location;lat;lon;timestamp;P1;durP1;ratioP1;P2;durP2;ratioP2
71810;SDS011;59657;0.000;0.000;2023-02-04T00:00:51;1.67;;;1.58;;
71810;SDS011;59657;0.000;0.000;2023-02-04T00:03:18;1.27;;;1.27;;
71810;SDS011;59657;0.000;0.000;2023-02-04T00:05:44;1.77;;;1.67;;
71810;SDS011;59657;0.000;0.000;2023-02-04T00:08:11;1.92;;;1.83;;
71810;SDS011;59657;0.000;0.000;2023-02-04T00:10:37;1.38;;;1.35;;
71810;SDS011;59657;0.000;0.000;2023-02-04T00:15:30;1.58;;;1.58;;
71810;SDS011;59657;0.000;0.000;2023-02-04T00:20:23;1.85;;;1.77;;
71810;SDS011;59657;0.000;0.000;2023-02-04T00:22:49;1.88;;;1.77;;
71810;SDS011;59657;0.000;0.000;2023-02-04T00:25:16;1.80;;;1.70;;
71810;SDS011;59657;0.000;0.000;2023-02-04T00:30:09;1.83;;;1.73;;
71810;SDS011;59657;0.000;0.000;2023-02-04T00:32:35;1.40;;;1.40;;
71810;SDS011;59657;0.000;0.000;2023-02-04T00:37:29;1.48;;;1.48;;
71810;SDS011;59657;0.000;0.000;2023-02-04T00:39:55;2.03;;;1.92;;
71810;SDS011;59657;0.000;0.000;2023-02-04T00:42:22;1.85;;;1.77;;
71810;SDS011;59657;0.000;0.000;2023-02-04T00:47:15;1.92;;;1.83;;
71810;SDS011;59657;0.000;0.000;2023-02-04T00:52:07;2.20;;;2.08;;
71810;SDS011;59657;0.000;0.000;2023-02-04T00:54:34;1.92;;;1.85;;
71810;SDS011;59657;0.000;0.000;2023-02-04T00:57:01;2.15;;;2.05;;
71810;SDS011;59657;0.000;0.000;2023-02-04T00:59:27;2.10;;;2.00;;
71810;SDS011;59657;0.000;0.000;2023-02-04T01:01:54;2.00;;;1.90;;
71810;SDS011;59657;0.000;0.000;2023-02-04T01:04:20;2.08;;;1.98;;
71810;SDS011;59657;0.000;0.000;2023-02-04T01:06:47;2.22;;;2.13;;
71810;SDS011;59657;0.000;0.000;2023-02-04T01:09:14;2.17;;;2.08;;
71810;SDS011;59657;0.000;0.000;2023-02-04T01:11:40;2.83;;;2.63;;
71810;SDS011;59657;0.000;0.000;2023-02-04T01:14:07;2.33;;;2.22;;
71810;SDS011;59657;0.000;0.000;2023-02-04T01:16:33;2.55;;;2.35;;
71810;SDS011;59657;0.000;0.000;2023-02-04T01:19:00;2.55;;;2.42;;
71810;SDS011;59657;0.000;0.000;2023-02-04T01:21:26;2.38;;;2.28;;
71810;SDS011;59657;0.000;0.000;2023-02-04T01:23:53;3.10;;;2.92;;
71810;SDS011;59657;0.000;0.000;2023-02-04T01:26:19;2.35;;;2.25;;
71810;SDS011;59657;0.000;0.000;2023-02-04T01:28:46;2.28;;;2.17;;
71810;SDS011;59657;0.000;0.000;2023-02-04T01:31:13;2.60;;;2.50;;
71810;SDS011;59657;0.000;0.000;2023-02-04T01:33:40;3.42;;;3.22;;
71810;SDS011;59657;0.000;0.000;2023-02-04T01:36:07;2.47;;;2.38;;
71810;SDS011;59657;0.000;0.000;2023-02-04T01:38:33;3.13;;;2.92;;
71810;SDS011;59657;0.000;0.000;2023-02-04T01:43:26;3.30;;;3.10;;
71810;SDS011;59657;0.000;0.000;2023-02-04T01:45:53;2.75;;;2.65;;
71810;SDS011;59657;0.000;0.000;2023-02-04T01:48:20;2.55;;;2.45;;
71810;SDS011;59657;0.000;0.000;2023-02-04T01:50:47;2.75;;;2.65;;
71810;SDS011;59657;0.000;0.000;2023-02-04T01:53:16;2.72;;;2.63;;
71810;SDS011;59657;0.000;0.000;2023-02-04T01:55:43;1.90;;;1.80;;
71810;SDS011;59657;0.000;0.000;2023-02-04T01:58:10;2.75;;;2.60;;
71810;SDS011;59657;0.000;0.000;2023-02-04T02:00:37;2.80;;;2.67;;
71810;SDS011;59657;0.000;0.000;2023-02-04T02:05:42;2.63;;;2.53;;
71810;SDS011;59657;0.000;0.000;2023-02-04T02:08:09;3.15;;;3.05;;
71810;SDS011;59657;0.000;0.000;2023-02-04T02:10:37;2.83;;;2.72;;
71810;SDS011;59657;0.000;0.000;2023-02-04T02:13:05;2.38;;;2.28;;
71810;SDS011;59657;0.000;0.000;2023-02-04T02:15:32;3.20;;;3.00;;
71810;SDS011;59657;0.000;0.000;2023-02-04T02:20:25;2.83;;;2.72;;
71810;SDS011;59657;0.000;0.000;2023-02-04T02:23:05;3.38;;;3.17;;
71810;SDS011;59657;0.000;0.000;2023-02-04T02:25:33;3.55;;;3.35;;
71810;SDS011;59657;0.000;0.000;2023-02-04T02:30:26;2.35;;;2.25;;
71810;SDS011;59657;0.000;0.000;2023-02-04T02:32:53;3.38;;;3.13;;
71810;SDS011;59657;0.000;0.000;2023-02-04T02:35:20;3.17;;;2.97;;
71810;SDS011;59657;0.000;0.000;2023-02-04T02:37:47;3.45;;;3.25;;
71810;SDS011;59657;0.000;0.000;2023-02-04T02:42:41;3.78;;;3.47;;
71810;SDS011;59657;0.000;0.000;2023-02-04T02:45:13;3.80;;;3.60;;
71810;SDS011;59657;0.000;0.000;2023-02-04T02:47:40;3.38;;;3.17;;
71810;SDS011;59657;0.000;0.000;2023-02-04T02:50:08;3.80;;;3.50;;
71810;SDS011;59657;0.000;0.000;2023-02-04T02:52:37;3.78;;;3.58;;
71810;SDS011;59657;0.000;0.000;2023-02-04T02:55:04;4.45;;;4.15;;
71810;SDS011;59657;0.000;0.000;2023-02-04T02:57:30;4.22;;;3.92;;
71810;SDS011;59657;0.000;0.000;2023-02-04T02:59:57;4.38;;;4.05;;
71810;SDS011;59657;0.000;0.000;2023-02-04T03:02:23;4.28;;;3.97;;
71810;SDS011;59657;0.000;0.000;2023-02-04T03:04:51;4.35;;;4.05;;
71810;SDS011;59657;0.000;0.000;2023-02-04T03:07:19;4.03;;;3.72;;
71810;SDS011;59657;0.000;0.000;2023-02-04T03:09:46;4.45;;;4.15;;
71810;SDS011;59657;0.000;0.000;2023-02-04T03:12:13;4.82;;;4.43;;
71810;SDS011;59657;0.000;0.000;2023-02-04T03:17:06;4.55;;;4.25;;
71810;SDS011;59657;0.000;0.000;2023-02-04T03:19:33;5.30;;;4.90;;
71810;SDS011;59657;0.000;0.000;2023-02-04T03:22:00;5.28;;;4.82;;
71810;SDS011;59657;0.000;0.000;2023-02-04T03:24:28;5.00;;;4.60;;
71810;SDS011;59657;0.000;0.000;2023-02-04T03:29:21;4.75;;;4.35;;
71810;SDS011;59657;0.000;0.000;2023-02-04T03:31:47;6.10;;;5.60;;
71810;SDS011;59657;0.000;0.000;2023-02-04T03:34:14;5.40;;;5.00;;
71810;SDS011;59657;0.000;0.000;2023-02-04T03:36:40;4.90;;;4.50;;
71810;SDS011;59657;0.000;0.000;2023-02-04T03:41:33;4.97;;;4.57;;
71810;SDS011;59657;0.000;0.000;2023-02-04T03:43:59;5.18;;;4.78;;
71810;SDS011;59657;0.000;0.000;2023-02-04T03:46:26;5.05;;;4.65;;
71810;SDS011;59657;0.000;0.000;2023-02-04T03:51:19;4.88;;;4.47;;
71810;SDS011;59657;0.000;0.000;2023-02-04T03:53:45;5.10;;;4.70;;
71810;SDS011;59657;0.000;0.000;2023-02-04T03:56:12;5.25;;;4.85;;
71810;SDS011;59657;0.000;0.000;2023-02-04T03:58:38;5.35;;;4.88;;
71810;SDS011;59657;0.000;0.000;2023-02-04T04:01:05;5.65;;;5.15;;
71810;SDS011;59657;0.000;0.000;2023-02-04T04:03:31;5.35;;;4.95;;
71810;SDS011;59657;0.000;0.000;2023-02-04T04:05:58;5.75;;;5.25;;
71810;SDS011;59657;0.000;0.000;2023-02-04T04:08:24;5.78;;;5.28;;
71810;SDS011;59657;0.000;0.000;2023-02-04T04:10:51;5.47;;;4.97;;
71810;SDS011;59657;0.000;0.000;2023-02-04T04:13:17;6.25;;;5.70;;
71810;SDS011;59657;0.000;0.000;2023-02-04T04:15:44;5.70;;;5.20;;
71810;SDS011;59657;0.000;0.000;2023-02-04T04:18:10;6.32;;;5.72;;
71810;SDS011;59657;0.000;0.000;2023-02-04T04:20:37;6.00;;;5.40;;
71810;SDS011;59657;0.000;0.000;2023-02-04T04:23:03;6.90;;;6.30;;
71810;SDS011;59657;0.000;0.000;2023-02-04T04:25:30;6.22;;;5.63;;
71810;SDS011;59657;0.000;0.000;2023-02-04T04:27:56;5.88;;;5.38;;
71810;SDS011;59657;0.000;0.000;2023-02-04T04:30:23;5.93;;;5.43;;
71810;SDS011;59657;0.000;0.000;2023-02-04T04:32:49;6.10;;;5.60;;
71810;SDS011;59657;0.000;0.000;2023-02-04T04:35:16;5.85;;;5.35;;
71810;SDS011;59657;0.000;0.000;2023-02-04T04:37:42;6.13;;;5.57;;
71810;SDS011;59657;0.000;0.000;2023-02-04T04:40:10;5.90;;;5.40;;
71810;SDS011;59657;0.000;0.000;2023-02-04T04:42:37;6.30;;;5.70;;
71810;SDS011;59657;0.000;0.000;2023-02-04T04:45:05;5.60;;;5.10;;
71810;SDS011;59657;0.000;0.000;2023-02-04T04:47:32;6.07;;;5.47;;
71810;SDS011;59657;0.000;0.000;2023-02-04T04:49:58;6.18;;;5.63;;
71810;SDS011;59657;0.000;0.000;2023-02-04T04:52:25;6.75;;;6.15;;
71810;SDS011;59657;0.000;0.000;2023-02-04T04:54:51;6.43;;;5.82;;
71810;SDS011;59657;0.000;0.000;2023-02-04T04:57:18;6.63;;;6.03;;
71810;SDS011;59657;0.000;0.000;2023-02-04T04:59:44;6.07;;;5.53;;
71810;SDS011;59657;0.000;0.000;2023-02-04T05:02:11;6.28;;;5.68;;
71810;SDS011;59657;0.000;0.000;2023-02-04T05:04:37;6.75;;;6.15;;
71810;SDS011;59657;0.000;0.000;2023-02-04T05:07:04;6.60;;;6.00;;
71810;SDS011;59657;0.000;0.000;2023-02-04T05:09:30;5.93;;;5.43;;
71810;SDS011;59657;0.000;0.000;2023-02-04T05:14:23;6.47;;;5.88;;
71810;SDS011;59657;0.000;0.000;2023-02-04T05:19:16;5.75;;;5.25;;
71810;SDS011;59657;0.000;0.000;2023-02-04T05:21:42;6.47;;;5.88;;
71810;SDS011;59657;0.000;0.000;2023-02-04T05:24:09;5.65;;;5.15;;
71810;SDS011;59657;0.000;0.000;2023-02-04T05:26:35;5.68;;;5.20;;
71810;SDS011;59657;0.000;0.000;2023-02-04T05:29:02;5.70;;;5.20;;
71810;SDS011;59657;0.000;0.000;2023-02-04T05:31:28;5.70;;;5.20;;
71810;SDS011;59657;0.000;0.000;2023-02-04T05:33:55;5.15;;;4.75;;
71810;SDS011;59657;0.000;0.000;2023-02-04T05:36:21;5.18;;;4.78;;
71810;SDS011;59657;0.000;0.000;2023-02-04T05:38:48;4.78;;;4.38;;
71810;SDS011;59657;0.000;0.000;2023-02-04T05:41:14;5.50;;;5.00;;
71810;SDS011;59657;0.000;0.000;2023-02-04T05:43:41;5.90;;;5.40;;
71810;SDS011;59657;0.000;0.000;2023-02-04T05:46:07;5.57;;;5.07;;
71810;SDS011;59657;0.000;0.000;2023-02-04T05:48:34;5.88;;;5.38;;
71810;SDS011;59657;0.000;0.000;2023-02-04T05:51:00;6.00;;;5.50;;
71810;SDS011;59657;0.000;0.000;2023-02-04T05:53:27;5.63;;;5.15;;
71810;SDS011;59657;0.000;0.000;2023-02-04T05:55:54;5.72;;;5.22;;
71810;SDS011;59657;0.000;0.000;2023-02-04T05:58:20;5.45;;;5.03;;
71810;SDS011;59657;0.000;0.000;2023-02-04T06:00:47;5.82;;;5.32;;
71810;SDS011;59657;0.000;0.000;2023-02-04T06:03:13;6.15;;;5.65;;
71810;SDS011;59657;0.000;0.000;2023-02-04T06:05:40;5.78;;;5.28;;
71810;SDS011;59657;0.000;0.000;2023-02-04T06:08:08;5.97;;;5.32;;
71810;SDS011;59657;0.000;0.000;2023-02-04T06:10:35;5.72;;;5.22;;
71810;SDS011;59657;0.000;0.000;2023-02-04T06:13:01;5.53;;;5.13;;
71810;SDS011;59657;0.000;0.000;2023-02-04T06:15:28;5.80;;;5.30;;
71810;SDS011;59657;0.000;0.000;2023-02-04T06:17:54;5.63;;;5.15;;
71810;SDS011;59657;0.000;0.000;2023-02-04T06:20:22;6.28;;;5.68;;
71810;SDS011;59657;0.000;0.000;2023-02-04T06:22:49;5.68;;;5.18;;
71810;SDS011;59657;0.000;0.000;2023-02-04T06:25:19;5.85;;;5.35;;
71810;SDS011;59657;0.000;0.000;2023-02-04T06:27:45;5.53;;;5.03;;
71810;SDS011;59657;0.000;0.000;2023-02-04T06:30:12;7.05;;;6.45;;
71810;SDS011;59657;0.000;0.000;2023-02-04T06:32:39;5.97;;;5.47;;
71810;SDS011;59657;0.000;0.000;2023-02-04T06:37:32;6.00;;;5.50;;
71810;SDS011;59657;0.000;0.000;2023-02-04T06:39:58;7.05;;;6.30;;
71810;SDS011;59657;0.000;0.000;2023-02-04T06:42:25;6.50;;;5.90;;
71810;SDS011;59657;0.000;0.000;2023-02-04T06:44:51;7.03;;;6.32;;
71810;SDS011;59657;0.000;0.000;2023-02-04T06:47:18;6.90;;;6.30;;
71810;SDS011;59657;0.000;0.000;2023-02-04T06:49:45;5.22;;;4.75;;
71810;SDS011;59657;0.000;0.000;2023-02-04T06:52:11;5.82;;;5.32;;
71810;SDS011;59657;0.000;0.000;2023-02-04T06:54:38;6.10;;;5.50;;
71810;SDS011;59657;0.000;0.000;2023-02-04T06:57:04;6.93;;;6.32;;
71810;SDS011;59657;0.000;0.000;2023-02-04T06:59:34;6.50;;;5.90;;
71810;SDS011;59657;0.000;0.000;2023-02-04T07:02:00;6.60;;;6.00;;
71810;SDS011;59657;0.000;0.000;2023-02-04T07:04:27;6.38;;;5.68;;
71810;SDS011;59657;0.000;0.000;2023-02-04T07:06:54;6.28;;;5.68;;
71810;SDS011;59657;0.000;0.000;2023-02-04T07:09:20;6.63;;;6.00;;
71810;SDS011;59657;0.000;0.000;2023-02-04T07:14:13;6.90;;;6.20;;
71810;SDS011;59657;0.000;0.000;2023-02-04T07:16:39;6.40;;;5.80;;
71810;SDS011;59657;0.000;0.000;2023-02-04T07:19:06;6.38;;;5.70;;
71810;SDS011;59657;0.000;0.000;2023-02-04T07:21:32;6.78;;;6.18;;
71810;SDS011;59657;0.000;0.000;2023-02-04T07:23:59;6.60;;;5.65;;
71810;SDS011;59657;0.000;0.000;2023-02-04T07:26:25;6.63;;;5.93;;
71810;SDS011;59657;0.000;0.000;2023-02-04T07:28:52;7.18;;;6.47;;
71810;SDS011;59657;0.000;0.000;2023-02-04T07:31:19;7.90;;;7.10;;
71810;SDS011;59657;0.000;0.000;2023-02-04T07:33:45;6.80;;;6.15;;
71810;SDS011;59657;0.000;0.000;2023-02-04T07:36:12;7.30;;;6.55;;
71810;SDS011;59657;0.000;0.000;2023-02-04T07:38:38;7.22;;;6.53;;
71810;SDS011;59657;0.000;0.000;2023-02-04T07:41:05;7.50;;;6.35;;
71810;SDS011;59657;0.000;0.000;2023-02-04T07:43:31;8.02;;;6.82;;
71810;SDS011;59657;0.000;0.000;2023-02-04T07:45:58;7.47;;;6.70;;
71810;SDS011;59657;0.000;0.000;2023-02-04T07:48:24;7.47;;;6.68;;
71810;SDS011;59657;0.000;0.000;2023-02-04T07:50:51;8.13;;;7.05;;
71810;SDS011;59657;0.000;0.000;2023-02-04T07:53:17;7.38;;;6.68;;
71810;SDS011;59657;0.000;0.000;2023-02-04T07:55:44;7.10;;;6.40;;
71810;SDS011;59657;0.000;0.000;2023-02-04T07:58:11;8.15;;;6.95;;
71810;SDS011;59657;0.000;0.000;2023-02-04T08:00:38;7.75;;;6.95;;
71810;SDS011;59657;0.000;0.000;2023-02-04T08:03:04;4.75;;;4.35;;
71810;SDS011;59657;0.000;0.000;2023-02-04T08:05:31;5.65;;;5.15;;
71810;SDS011;59657;0.000;0.000;2023-02-04T08:07:57;4.82;;;4.43;;
71810;SDS011;59657;0.000;0.000;2023-02-04T08:10:26;3.33;;;3.13;;
71810;SDS011;59657;0.000;0.000;2023-02-04T08:15:19;4.07;;;3.78;;
71810;SDS011;59657;0.000;0.000;2023-02-04T08:17:45;4.82;;;4.43;;
71810;SDS011;59657;0.000;0.000;2023-02-04T08:20:12;4.22;;;3.92;;
71810;SDS011;59657;0.000;0.000;2023-02-04T08:22:38;4.03;;;3.72;;
71810;SDS011;59657;0.000;0.000;2023-02-04T08:25:05;3.35;;;3.15;;
71810;SDS011;59657;0.000;0.000;2023-02-04T08:29:58;2.97;;;2.78;;
71810;SDS011;59657;0.000;0.000;2023-02-04T08:32:24;2.55;;;2.45;;
71810;SDS011;59657;0.000;0.000;2023-02-04T08:34:52;1.58;;;1.58;;
71810;SDS011;59657;0.000;0.000;2023-02-04T08:37:19;2.95;;;2.75;;
71810;SDS011;59657;0.000;0.000;2023-02-04T08:39:45;3.97;;;3.67;;
71810;SDS011;59657;0.000;0.000;2023-02-04T08:42:13;4.07;;;3.78;;
71810;SDS011;59657;0.000;0.000;2023-02-04T08:44:40;3.30;;;3.10;;
71810;SDS011;59657;0.000;0.000;2023-02-04T08:49:33;4.15;;;3.75;;
71810;SDS011;59657;0.000;0.000;2023-02-04T08:52:00;3.88;;;3.58;;
71810;SDS011;59657;0.000;0.000;2023-02-04T08:54:28;4.45;;;4.10;;
71810;SDS011;59657;0.000;0.000;2023-02-04T08:56:55;4.07;;;3.78;;
71810;SDS011;59657;0.000;0.000;2023-02-04T08:59:21;4.55;;;4.15;;
71810;SDS011;59657;0.000;0.000;2023-02-04T09:01:48;4.68;;;4.28;;
71810;SDS011;59657;0.000;0.000;2023-02-04T09:04:18;4.40;;;4.00;;
71810;SDS011;59657;0.000;0.000;2023-02-04T09:06:45;4.07;;;3.78;;
71810;SDS011;59657;0.000;0.000;2023-02-04T09:09:12;4.70;;;4.30;;
71810;SDS011;59657;0.000;0.000;2023-02-04T09:14:05;5.68;;;5.15;;
71810;SDS011;59657;0.000;0.000;2023-02-04T09:16:31;5.15;;;4.65;;
71810;SDS011;59657;0.000;0.000;2023-02-04T09:18:58;4.00;;;3.70;;
71810;SDS011;59657;0.000;0.000;2023-02-04T09:21:26;5.65;;;5.15;;
71810;SDS011;59657;0.000;0.000;2023-02-04T09:26:19;5.93;;;5.32;;
71810;SDS011;59657;0.000;0.000;2023-02-04T09:28:45;5.32;;;4.82;;
71810;SDS011;59657;0.000;0.000;2023-02-04T09:31:13;5.30;;;4.65;;
71810;SDS011;59657;0.000;0.000;2023-02-04T09:33:40;4.53;;;4.15;;
71810;SDS011;59657;0.000;0.000;2023-02-04T09:36:06;3.70;;;3.40;;
71810;SDS011;59657;0.000;0.000;2023-02-04T09:38:33;4.25;;;3.88;;
71810;SDS011;59657;0.000;0.000;2023-02-04T09:41:01;4.57;;;4.18;;
71810;SDS011;59657;0.000;0.000;2023-02-04T09:43:28;6.80;;;5.60;;
71810;SDS011;59657;0.000;0.000;2023-02-04T09:45:55;6.63;;;5.95;;
71810;SDS011;59657;0.000;0.000;2023-02-04T09:50:50;6.35;;;5.70;;
71810;SDS011;59657;0.000;0.000;2023-02-04T09:53:18;6.18;;;5.57;;
71810;SDS011;59657;0.000;0.000;2023-02-04T09:55:46;6.18;;;5.47;;
71810;SDS011;59657;0.000;0.000;2023-02-04T09:58:14;7.18;;;6.28;;
71810;SDS011;59657;0.000;0.000;2023-02-04T10:00:41;5.82;;;5.05;;
71810;SDS011;59657;0.000;0.000;2023-02-04T10:03:12;6.15;;;5.55;;
71810;SDS011;59657;0.000;0.000;2023-02-04T10:05:39;5.00;;;4.50;;
71810;SDS011;59657;0.000;0.000;2023-02-04T10:08:06;3.70;;;3.40;;
71810;SDS011;59657;0.000;0.000;2023-02-04T10:10:32;3.72;;;3.42;;
71810;SDS011;59657;0.000;0.000;2023-02-04T10:13:00;3.60;;;3.30;;
71810;SDS011;59657;0.000;0.000;2023-02-04T10:15:27;2.92;;;2.72;;
71810;SDS011;59657;0.000;0.000;2023-02-04T10:20:20;2.92;;;2.72;;
71810;SDS011;59657;0.000;0.000;2023-02-04T10:22:48;2.15;;;2.05;;
71810;SDS011;59657;0.000;0.000;2023-02-04T10:25:16;2.13;;;2.03;;
71810;SDS011;59657;0.000;0.000;2023-02-04T10:27:51;2.50;;;2.40;;
71810;SDS011;59657;0.000;0.000;2023-02-04T10:30:19;2.45;;;2.25;;
71810;SDS011;59657;0.000;0.000;2023-02-04T10:32:47;2.22;;;2.13;;
71810;SDS011;59657;0.000;0.000;2023-02-04T10:35:14;2.90;;;2.70;;
71810;SDS011;59657;0.000;0.000;2023-02-04T10:37:41;2.45;;;2.30;;
71810;SDS011;59657;0.000;0.000;2023-02-04T10:42:34;1.67;;;1.58;;
71810;SDS011;59657;0.000;0.000;2023-02-04T10:45:00;1.90;;;1.80;;
71810;SDS011;59657;0.000;0.000;2023-02-04T10:47:28;1.77;;;1.67;;
71810;SDS011;59657;0.000;0.000;2023-02-04T10:49:57;3.15;;;2.85;;
71810;SDS011;59657;0.000;0.000;2023-02-04T10:52:30;3.03;;;2.83;;
71810;SDS011;59657;0.000;0.000;2023-02-04T10:55:00;2.28;;;2.17;;
71810;SDS011;59657;0.000;0.000;2023-02-04T10:57:28;3.97;;;3.67;;
71810;SDS011;59657;0.000;0.000;2023-02-04T10:59:57;9.63;;;5.53;;
71810;SDS011;59657;0.000;0.000;2023-02-04T11:02:32;7.28;;;5.60;;
71810;SDS011;59657;0.000;0.000;2023-02-04T11:05:00;2.90;;;2.70;;
71810;SDS011;59657;0.000;0.000;2023-02-04T11:07:27;3.95;;;3.65;;
71810;SDS011;59657;0.000;0.000;2023-02-04T11:09:55;3.08;;;2.88;;
71810;SDS011;59657;0.000;0.000;2023-02-04T11:12:22;2.30;;;2.20;;
71810;SDS011;59657;0.000;0.000;2023-02-04T11:14:56;2.67;;;2.47;;
71810;SDS011;59657;0.000;0.000;2023-02-04T11:17:30;3.67;;;3.38;;
71810;SDS011;59657;0.000;0.000;2023-02-04T11:19:58;3.47;;;3.17;;
71810;SDS011;59657;0.000;0.000;2023-02-04T11:25:01;5.00;;;4.47;;
71810;SDS011;59657;0.000;0.000;2023-02-04T11:27:43;6.15;;;5.53;;
71810;SDS011;59657;0.000;0.000;2023-02-04T11:30:29;5.20;;;4.60;;
71810;SDS011;59657;0.000;0.000;2023-02-04T11:33:00;4.88;;;4.45;;
71810;SDS011;59657;0.000;0.000;2023-02-04T11:35:27;6.07;;;5.47;;
71810;SDS011;59657;0.000;0.000;2023-02-04T11:37:54;4.68;;;4.20;;
71810;SDS011;59657;0.000;0.000;2023-02-04T11:40:23;5.60;;;5.05;;
71810;SDS011;59657;0.000;0.000;2023-02-04T11:42:54;4.85;;;4.45;;
71810;SDS011;59657;0.000;0.000;2023-02-04T11:45:23;5.45;;;4.60;;
71810;SDS011;59657;0.000;0.000;2023-02-04T11:47:50;5.03;;;4.53;;
71810;SDS011;59657;0.000;0.000;2023-02-04T11:50:22;4.88;;;4.38;;
71810;SDS011;59657;0.000;0.000;2023-02-04T11:52:50;5.68;;;5.07;;
71810;SDS011;59657;0.000;0.000;2023-02-04T11:55:16;6.18;;;5.57;;
71810;SDS011;59657;0.000;0.000;2023-02-04T12:00:17;4.60;;;4.20;;
71810;SDS011;59657;0.000;0.000;2023-02-04T12:02:45;5.95;;;4.97;;
71810;SDS011;59657;0.000;0.000;2023-02-04T12:05:13;4.38;;;3.97;;
71810;SDS011;59657;0.000;0.000;2023-02-04T12:07:40;5.38;;;4.50;;
71810;SDS011;59657;0.000;0.000;2023-02-04T12:10:24;5.15;;;4.65;;
71810;SDS011;59657;0.000;0.000;2023-02-04T12:12:52;4.78;;;4.18;;
71810;SDS011;59657;0.000;0.000;2023-02-04T12:15:24;4.70;;;4.28;;
71810;SDS011;59657;0.000;0.000;2023-02-04T12:18:05;5.85;;;4.85;;
71810;SDS011;59657;0.000;0.000;2023-02-04T12:20:32;5.53;;;4.88;;
71810;SDS011;59657;0.000;0.000;2023-02-04T12:22:59;6.90;;;5.35;;
71810;SDS011;59657;0.000;0.000;2023-02-04T12:25:26;5.95;;;4.78;;
71810;SDS011;59657;0.000;0.000;2023-02-04T12:27:53;5.13;;;4.38;;
71810;SDS011;59657;0.000;0.000;2023-02-04T12:30:20;4.95;;;4.18;;
71810;SDS011;59657;0.000;0.000;2023-02-04T12:32:46;5.30;;;4.80;;
71810;SDS011;59657;0.000;0.000;2023-02-04T12:35:13;3.20;;;3.00;;
71810;SDS011;59657;0.000;0.000;2023-02-04T12:37:40;4.55;;;4.25;;
71810;SDS011;59657;0.000;0.000;2023-02-04T12:40:06;4.60;;;4.05;;
71810;SDS011;59657;0.000;0.000;2023-02-04T12:42:33;3.90;;;3.53;;
71810;SDS011;59657;0.000;0.000;2023-02-04T12:45:00;5.10;;;4.60;;
71810;SDS011;59657;0.000;0.000;2023-02-04T12:47:26;3.97;;;3.45;;
71810;SDS011;59657;0.000;0.000;2023-02-04T12:49:53;3.17;;;2.88;;
71810;SDS011;59657;0.000;0.000;2023-02-04T12:52:19;3.28;;;2.92;;
71810;SDS011;59657;0.000;0.000;2023-02-04T12:54:46;3.50;;;3.20;;
71810;SDS011;59657;0.000;0.000;2023-02-04T12:57:12;2.97;;;2.78;;
71810;SDS011;59657;0.000;0.000;2023-02-04T12:59:44;2.88;;;2.67;;
71810;SDS011;59657;0.000;0.000;2023-02-04T13:02:11;3.40;;;3.10;;
71810;SDS011;59657;0.000;0.000;2023-02-04T13:07:04;4.97;;;4.18;;
71810;SDS011;59657;0.000;0.000;2023-02-04T13:09:32;3.75;;;3.45;;
71810;SDS011;59657;0.000;0.000;2023-02-04T13:14:24;6.72;;;4.97;;
71810;SDS011;59657;0.000;0.000;2023-02-04T13:16:51;6.25;;;4.85;;
71810;SDS011;59657;0.000;0.000;2023-02-04T13:19:17;6.22;;;4.95;;
71810;SDS011;59657;0.000;0.000;2023-02-04T13:21:44;6.65;;;5.20;;
71810;SDS011;59657;0.000;0.000;2023-02-04T13:24:11;5.70;;;4.63;;
71810;SDS011;59657;0.000;0.000;2023-02-04T13:26:37;6.60;;;5.00;;
71810;SDS011;59657;0.000;0.000;2023-02-04T13:29:04;7.07;;;5.38;;
71810;SDS011;59657;0.000;0.000;2023-02-04T13:31:30;8.15;;;5.80;;
71810;SDS011;59657;0.000;0.000;2023-02-04T13:33:57;6.05;;;5.05;;
71810;SDS011;59657;0.000;0.000;2023-02-04T13:36:23;9.07;;;6.10;;
71810;SDS011;59657;0.000;0.000;2023-02-04T13:38:52;5.13;;;4.05;;
71810;SDS011;59657;0.000;0.000;2023-02-04T13:41:18;8.00;;;5.68;;
71810;SDS011;59657;0.000;0.000;2023-02-04T13:46:11;9.15;;;6.72;;
71810;SDS011;59657;0.000;0.000;2023-02-04T13:48:37;4.90;;;3.75;;
71810;SDS011;59657;0.000;0.000;2023-02-04T13:51:04;9.13;;;6.40;;
71810;SDS011;59657;0.000;0.000;2023-02-04T13:53:30;8.68;;;6.30;;
71810;SDS011;59657;0.000;0.000;2023-02-04T13:55:57;8.00;;;6.10;;
71810;SDS011;59657;0.000;0.000;2023-02-04T14:00:50;7.80;;;5.25;;
71810;SDS011;59657;0.000;0.000;2023-02-04T14:03:22;8.13;;;6.45;;
71810;SDS011;59657;0.000;0.000;2023-02-04T14:05:48;7.90;;;6.53;;
71810;SDS011;59657;0.000;0.000;2023-02-04T14:10:41;8.48;;;5.75;;
71810;SDS011;59657;0.000;0.000;2023-02-04T14:13:08;9.52;;;6.00;;
71810;SDS011;59657;0.000;0.000;2023-02-04T14:18:02;8.20;;;6.78;;
71810;SDS011;59657;0.000;0.000;2023-02-04T14:20:29;5.82;;;4.15;;
71810;SDS011;59657;0.000;0.000;2023-02-04T14:22:56;8.10;;;6.03;;
71810;SDS011;59657;0.000;0.000;2023-02-04T14:25:22;6.88;;;5.38;;
71810;SDS011;59657;0.000;0.000;2023-02-04T14:27:49;7.20;;;5.47;;
71810;SDS011;59657;0.000;0.000;2023-02-04T14:30:17;5.60;;;4.75;;
71810;SDS011;59657;0.000;0.000;2023-02-04T14:32:43;4.57;;;3.92;;
71810;SDS011;59657;0.000;0.000;2023-02-04T14:37:36;6.65;;;5.15;;
71810;SDS011;59657;0.000;0.000;2023-02-04T14:40:03;6.60;;;4.93;;
71810;SDS011;59657;0.000;0.000;2023-02-04T14:42:30;5.43;;;4.28;;
71810;SDS011;59657;0.000;0.000;2023-02-04T14:44:56;7.13;;;5.68;;
71810;SDS011;59657;0.000;0.000;2023-02-04T14:47:23;8.68;;;5.90;;
71810;SDS011;59657;0.000;0.000;2023-02-04T14:52:16;5.43;;;3.92;;
71810;SDS011;59657;0.000;0.000;2023-02-04T14:54:42;6.22;;;4.65;;
71810;SDS011;59657;0.000;0.000;2023-02-04T14:57:09;7.75;;;5.72;;
71810;SDS011;59657;0.000;0.000;2023-02-04T14:59:36;8.80;;;6.20;;
71810;SDS011;59657;0.000;0.000;2023-02-04T15:02:03;8.77;;;6.28;;
71810;SDS011;59657;0.000;0.000;2023-02-04T15:04:30;6.55;;;5.03;;
71810;SDS011;59657;0.000;0.000;2023-02-04T15:06:56;9.32;;;6.35;;
71810;SDS011;59657;0.000;0.000;2023-02-04T15:11:49;8.00;;;5.60;;
71810;SDS011;59657;0.000;0.000;2023-02-04T15:14:16;6.57;;;4.80;;
71810;SDS011;59657;0.000;0.000;2023-02-04T15:16:43;3.65;;;3.35;;
71810;SDS011;59657;0.000;0.000;2023-02-04T15:19:13;3.58;;;3.25;;
71810;SDS011;59657;0.000;0.000;2023-02-04T15:21:40;3.33;;;3.00;;
71810;SDS011;59657;0.000;0.000;2023-02-04T15:24:07;3.17;;;2.95;;
71810;SDS011;59657;0.000;0.000;2023-02-04T15:26:33;3.45;;;3.15;;
71810;SDS011;59657;0.000;0.000;2023-02-04T15:31:26;3.05;;;2.85;;
71810;SDS011;59657;0.000;0.000;2023-02-04T15:33:52;2.92;;;2.72;;
71810;SDS011;59657;0.000;0.000;2023-02-04T15:38:46;3.05;;;2.85;;
71810;SDS011;59657;0.000;0.000;2023-02-04T15:41:12;2.58;;;2.38;;
71810;SDS011;59657;0.000;0.000;2023-02-04T15:46:05;4.30;;;3.90;;
71810;SDS011;59657;0.000;0.000;2023-02-04T15:48:32;3.97;;;3.58;;
71810;SDS011;59657;0.000;0.000;2023-02-04T15:53:25;6.10;;;5.25;;
71810;SDS011;59657;0.000;0.000;2023-02-04T15:58:17;4.85;;;3.78;;
71810;SDS011;59657;0.000;0.000;2023-02-04T16:03:10;6.53;;;4.65;;
71810;SDS011;59657;0.000;0.000;2023-02-04T16:08:03;8.30;;;5.38;;
71810;SDS011;59657;0.000;0.000;2023-02-04T16:12:55;6.38;;;5.22;;
71810;SDS011;59657;0.000;0.000;2023-02-04T16:15:23;6.13;;;4.60;;
71810;SDS011;59657;0.000;0.000;2023-02-04T16:17:49;6.65;;;5.32;;
71810;SDS011;59657;0.000;0.000;2023-02-04T16:20:17;6.40;;;4.93;;
71810;SDS011;59657;0.000;0.000;2023-02-04T16:22:43;5.47;;;4.07;;
71810;SDS011;59657;0.000;0.000;2023-02-04T16:27:36;6.30;;;4.43;;
71810;SDS011;59657;0.000;0.000;2023-02-04T16:30:03;8.27;;;5.82;;
71810;SDS011;59657;0.000;0.000;2023-02-04T16:32:29;7.53;;;6.47;;
71810;SDS011;59657;0.000;0.000;2023-02-04T16:34:58;6.30;;;4.63;;
71810;SDS011;59657;0.000;0.000;2023-02-04T16:37:25;6.45;;;4.85;;
71810;SDS011;59657;0.000;0.000;2023-02-04T16:39:51;8.25;;;5.85;;
71810;SDS011;59657;0.000;0.000;2023-02-04T16:44:44;6.53;;;5.22;;
71810;SDS011;59657;0.000;0.000;2023-02-04T16:49:37;3.78;;;3.35;;
71810;SDS011;59657;0.000;0.000;2023-02-04T16:52:04;7.25;;;5.30;;
71810;SDS011;59657;0.000;0.000;2023-02-04T16:54:31;8.80;;;6.30;;
71810;SDS011;59657;0.000;0.000;2023-02-04T16:56:57;8.80;;;5.75;;
71810;SDS011;59657;0.000;0.000;2023-02-04T16:59:25;7.72;;;5.57;;